sensor_id;sensor_type;location;lat;lon;timestamp;P1;durP1;ratioP1;P2;durP2;ratioP2
12912;SDS011;6524;51.368;11.984;2023-03-01T00:04:36;18.77;;;14.10;;
12912;SDS011;6524;51.368;11.984;2023-03-01T00:09:36;21.40;;;13.27;;
12912;SDS011;6524;51.368;11.984;2023-03-01T00:14:37;20.77;;;13.63;;
12912;SDS011;6524;51.368;11.984;2023-03-01T00:19:38;21.23;;;13.33;;
12912;SDS011;6524;51.368;11.984;2023-03-01T00:24:38;20.67;;;14.00;;
12912;SDS011;6524;51.368;11.984;2023-03-01T00:29:39;20.37;;;14.37;;
12912;SDS011;6524;51.368;11.984;2023-03-01T00:34:39;21.80;;;13.03;;
12912;SDS011;6524;51.368;11.984;2023-03-01T00:39:40;18.23;;;12.67;;
12912;SDS011;6524;51.368;11.984;2023-03-01T00:44:40;19.43;;;13.23;;
12912;SDS011;6524;51.368;11.984;2023-03-01T00:49:40;16.93;;;12.57;;
12912;SDS011;6524;51.368;11.984;2023-03-01T00:54:41;19.63;;;13.23;;
12912;SDS011;6524;51.368;11.984;2023-03-01T00:59:41;22.40;;;12.53;;
12912;SDS011;6524;51.368;11.984;2023-03-01T05:01:51;12.37;;;9.27;;
12912;SDS011;6524;51.368;11.984;2023-03-01T05:06:56;12.00;;;9.27;;
12912;SDS011;6524;51.368;11.984;2023-03-01T05:11:58;12.17;;;9.10;;
12912;SDS011;6524;51.368;11.984;2023-03-01T05:16:59;14.57;;;9.33;;
12912;SDS011;6524;51.368;11.984;2023-03-01T05:22:03;13.07;;;9.27;;
12912;SDS011;6524;51.368;11.984;2023-03-01T05:27:04;16.07;;;11.53;;
12912;SDS011;6524;51.368;11.984;2023-03-01T05:32:04;17.27;;;9.90;;
12912;SDS011;6524;51.368;11.984;2023-03-01T05:37:05;15.50;;;9.47;;
12912;SDS011;6524;51.368;11.984;2023-03-01T05:42:10;16.35;;;12.20;;
12912;SDS011;6524;51.368;11.984;2023-03-01T05:47:11;20.67;;;12.60;;
12912;SDS011;6524;51.368;11.984;2023-03-01T05:52:11;14.47;;;10.00;;
12912;SDS011;6524;51.368;11.984;2023-03-01T05:57:11;13.43;;;9.10;;
12912;SDS011;6524;51.368;11.984;2023-03-01T06:02:12;13.60;;;9.37;;
12912;SDS011;6524;51.368;11.984;2023-03-01T06:07:12;13.30;;;9.40;;
12912;SDS011;6524;51.368;11.984;2023-03-01T06:12:12;14.37;;;10.20;;
12912;SDS011;6524;51.368;11.984;2023-03-01T06:17:13;17.23;;;10.67;;
12912;SDS011;6524;51.368;11.984;2023-03-01T06:22:13;14.07;;;9.47;;
12912;SDS011;6524;51.368;11.984;2023-03-01T06:27:14;13.60;;;9.97;;
12912;SDS011;6524;51.368;11.984;2023-03-01T06:32:14;16.47;;;10.73;;
12912;SDS011;6524;51.368;11.984;2023-03-01T06:37:15;13.47;;;10.13;;
12912;SDS011;6524;51.368;11.984;2023-03-01T06:42:15;18.53;;;11.23;;
12912;SDS011;6524;51.368;11.984;2023-03-01T06:47:15;16.10;;;11.57;;
12912;SDS011;6524;51.368;11.984;2023-03-01T06:52:16;18.03;;;12.70;;
12912;SDS011;6524;51.368;11.984;2023-03-01T06:57:16;15.30;;;12.03;;
12912;SDS011;6524;51.368;11.984;2023-03-01T07:02:17;15.17;;;11.37;;
12912;SDS011;6524;51.368;11.984;2023-03-01T07:07:18;18.47;;;12.70;;
12912;SDS011;6524;51.368;11.984;2023-03-01T07:12:19;14.47;;;11.47;;
12912;SDS011;6524;51.368;11.984;2023-03-01T07:17:19;14.00;;;10.80;;
12912;SDS011;6524;51.368;11.984;2023-03-01T07:22:20;13.07;;;11.37;;
12912;SDS011;6524;51.368;11.984;2023-03-01T07:27:20;13.65;;;11.10;;
12912;SDS011;6524;51.368;11.984;2023-03-01T07:32:20;12.52;;;11.00;;
12912;SDS011;6524;51.368;11.984;2023-03-01T07:37:21;11.35;;;10.23;;
12912;SDS011;6524;51.368;11.984;2023-03-01T07:42:21;12.05;;;10.77;;
12912;SDS011;6524;51.368;11.984;2023-03-01T07:47:22;11.90;;;10.70;;
12912;SDS011;6524;51.368;11.984;2023-03-01T07:52:22;12.10;;;10.90;;
12912;SDS011;6524;51.368;11.984;2023-03-01T07:57:22;11.37;;;10.17;;
12912;SDS011;6524;51.368;11.984;2023-03-01T08:02:23;12.25;;;10.95;;
12912;SDS011;6524;51.368;11.984;2023-03-01T08:07:23;13.48;;;11.05;;
12912;SDS011;6524;51.368;11.984;2023-03-01T08:12:24;11.98;;;10.82;;
12912;SDS011;6524;51.368;11.984;2023-03-01T08:17:27;13.07;;;11.00;;
12912;SDS011;6524;51.368;11.984;2023-03-01T08:22:28;11.90;;;10.70;;
12912;SDS011;6524;51.368;11.984;2023-03-01T08:27:28;12.95;;;11.45;;
12912;SDS011;6524;51.368;11.984;2023-03-01T08:32:29;12.02;;;10.82;;
12912;SDS011;6524;51.368;11.984;2023-03-01T08:37:29;12.95;;;11.65;;
12912;SDS011;6524;51.368;11.984;2023-03-01T08:42:32;12.35;;;11.15;;
12912;SDS011;6524;51.368;11.984;2023-03-01T08:47:33;13.85;;;12.23;;
12912;SDS011;6524;51.368;11.984;2023-03-01T08:52:33;13.35;;;12.02;;
12912;SDS011;6524;51.368;11.984;2023-03-01T08:57:34;13.30;;;12.00;;
12912;SDS011;6524;51.368;11.984;2023-03-01T09:02:34;12.73;;;11.47;;
12912;SDS011;6524;51.368;11.984;2023-03-01T09:07:34;12.98;;;11.40;;
12912;SDS011;6524;51.368;11.984;2023-03-01T09:12:35;14.30;;;12.07;;
12912;SDS011;6524;51.368;11.984;2023-03-01T09:17:36;13.95;;;12.50;;
12912;SDS011;6524;51.368;11.984;2023-03-01T09:22:37;13.70;;;12.40;;
12912;SDS011;6524;51.368;11.984;2023-03-01T09:27:37;14.63;;;13.20;;
12912;SDS011;6524;51.368;11.984;2023-03-01T09:32:37;13.55;;;12.35;;
12912;SDS011;6524;51.368;11.984;2023-03-01T09:37:42;14.50;;;13.10;;
12912;SDS011;6524;51.368;11.984;2023-03-01T09:43:28;14.52;;;13.23;;
12912;SDS011;6524;51.368;11.984;2023-03-01T09:48:16;15.10;;;13.60;;
12912;SDS011;6524;51.368;11.984;2023-03-01T09:53:20;15.18;;;13.65;;
12912;SDS011;6524;51.368;11.984;2023-03-01T10:03:51;15.75;;;14.07;;
12912;SDS011;6524;51.368;11.984;2023-03-01T10:09:10;15.07;;;13.68;;
12912;SDS011;6524;51.368;11.984;2023-03-01T10:24:36;16.83;;;15.10;;
12912;SDS011;6524;51.368;11.984;2023-03-01T10:29:48;19.15;;;17.25;;
12912;SDS011;6524;51.368;11.984;2023-03-01T10:35:15;20.02;;;18.15;;
12912;SDS011;6524;51.368;11.984;2023-03-01T10:40:21;18.05;;;16.25;;
12912;SDS011;6524;51.368;11.984;2023-03-01T10:45:55;19.52;;;17.52;;
12912;SDS011;6524;51.368;11.984;2023-03-01T10:56:00;18.90;;;17.10;;
12912;SDS011;6524;51.368;11.984;2023-03-01T11:01:05;20.05;;;17.45;;
12912;SDS011;6524;51.368;11.984;2023-03-01T11:06:24;19.58;;;17.58;;
12912;SDS011;6524;51.368;11.984;2023-03-01T11:11:30;19.05;;;17.25;;
12912;SDS011;6524;51.368;11.984;2023-03-01T11:16:34;18.60;;;16.48;;
12912;SDS011;6524;51.368;11.984;2023-03-01T11:21:37;19.20;;;17.27;;
12912;SDS011;6524;51.368;11.984;2023-03-01T11:26:41;16.67;;;14.98;;
12912;SDS011;6524;51.368;11.984;2023-03-01T11:31:45;15.57;;;14.00;;
12912;SDS011;6524;51.368;11.984;2023-03-01T11:36:49;14.98;;;13.48;;
12912;SDS011;6524;51.368;11.984;2023-03-01T11:42:00;15.75;;;14.07;;
12912;SDS011;6524;51.368;11.984;2023-03-01T11:58:00;15.38;;;13.77;;
12912;SDS011;6524;51.368;11.984;2023-03-01T12:19:21;16.20;;;14.02;;
12912;SDS011;6524;51.368;11.984;2023-03-01T12:29:58;16.30;;;14.05;;
12912;SDS011;6524;51.368;11.984;2023-03-01T12:35:20;16.85;;;15.05;;
12912;SDS011;6524;51.368;11.984;2023-03-01T12:50:52;18.90;;;15.07;;
12912;SDS011;6524;51.368;11.984;2023-03-01T12:56:01;15.95;;;13.77;;
12912;SDS011;6524;51.368;11.984;2023-03-01T13:01:16;16.50;;;14.43;;
12912;SDS011;6524;51.368;11.984;2023-03-01T13:06:38;15.95;;;12.88;;
12912;SDS011;6524;51.368;11.984;2023-03-01T13:11:41;17.83;;;13.85;;
12912;SDS011;6524;51.368;11.984;2023-03-01T13:16:42;15.63;;;11.90;;
12912;SDS011;6524;51.368;11.984;2023-03-01T13:21:45;13.38;;;11.05;;
12912;SDS011;6524;51.368;11.984;2023-03-01T13:32:06;11.75;;;10.50;;
12912;SDS011;6524;51.368;11.984;2023-03-01T13:37:24;12.10;;;10.63;;
12912;SDS011;6524;51.368;11.984;2023-03-01T13:42:31;12.18;;;10.13;;
12912;SDS011;6524;51.368;11.984;2023-03-01T13:47:33;12.07;;;10.02;;
12912;SDS011;6524;51.368;11.984;2023-03-01T13:52:47;11.85;;;9.55;;
12912;SDS011;6524;51.368;11.984;2023-03-01T13:57:56;11.02;;;9.25;;
12912;SDS011;6524;51.368;11.984;2023-03-01T14:03:03;10.55;;;9.10;;
12912;SDS011;6524;51.368;11.984;2023-03-01T14:08:21;11.57;;;10.07;;
12912;SDS011;6524;51.368;11.984;2023-03-01T14:18:36;10.65;;;9.32;;
12912;SDS011;6524;51.368;11.984;2023-03-01T14:23:47;16.27;;;9.50;;
12912;SDS011;6524;51.368;11.984;2023-03-01T14:28:49;10.55;;;8.50;;
12912;SDS011;6524;51.368;11.984;2023-03-01T14:33:54;11.63;;;8.93;;
12912;SDS011;6524;51.368;11.984;2023-03-01T14:38:55;11.07;;;9.43;;
12912;SDS011;6524;51.368;11.984;2023-03-01T14:43:59;12.52;;;9.15;;
12912;SDS011;6524;51.368;11.984;2023-03-01T14:54:23;10.77;;;9.10;;
12912;SDS011;6524;51.368;11.984;2023-03-01T14:59:24;10.90;;;8.30;;
12912;SDS011;6524;51.368;11.984;2023-03-01T15:04:26;10.98;;;8.32;;
12912;SDS011;6524;51.368;11.984;2023-03-01T15:09:28;9.98;;;8.15;;
12912;SDS011;6524;51.368;11.984;2023-03-01T15:14:38;9.82;;;8.18;;
12912;SDS011;6524;51.368;11.984;2023-03-01T15:19:45;10.55;;;7.72;;
12912;SDS011;6524;51.368;11.984;2023-03-01T15:24:47;9.48;;;7.82;;
12912;SDS011;6524;51.368;11.984;2023-03-01T15:29:50;9.85;;;7.60;;
12912;SDS011;6524;51.368;11.984;2023-03-01T15:40:53;9.48;;;6.75;;
12912;SDS011;6524;51.368;11.984;2023-03-01T15:45:56;9.45;;;7.07;;
12912;SDS011;6524;51.368;11.984;2023-03-01T15:50:58;8.63;;;6.95;;
12912;SDS011;6524;51.368;11.984;2023-03-01T15:56:01;8.13;;;7.33;;
12912;SDS011;6524;51.368;11.984;2023-03-01T16:01:02;7.27;;;6.17;;
12912;SDS011;6524;51.368;11.984;2023-03-01T16:06:02;7.70;;;6.23;;
12912;SDS011;6524;51.368;11.984;2023-03-01T16:11:09;8.20;;;6.60;;
12912;SDS011;6524;51.368;11.984;2023-03-01T16:16:15;8.80;;;6.40;;
12912;SDS011;6524;51.368;11.984;2023-03-01T16:21:20;7.90;;;5.87;;
12912;SDS011;6524;51.368;11.984;2023-03-01T16:26:23;7.60;;;6.20;;
12912;SDS011;6524;51.368;11.984;2023-03-01T16:31:24;7.53;;;6.07;;
12912;SDS011;6524;51.368;11.984;2023-03-01T16:36:28;7.83;;;6.00;;
12912;SDS011;6524;51.368;11.984;2023-03-01T16:41:29;8.93;;;6.27;;
12912;SDS011;6524;51.368;11.984;2023-03-01T16:46:31;8.37;;;6.10;;
12912;SDS011;6524;51.368;11.984;2023-03-01T16:51:32;8.60;;;5.73;;
12912;SDS011;6524;51.368;11.984;2023-03-01T16:56:34;7.67;;;5.80;;
12912;SDS011;6524;51.368;11.984;2023-03-01T17:01:37;7.50;;;6.17;;
12912;SDS011;6524;51.368;11.984;2023-03-01T17:06:40;7.30;;;6.07;;
12912;SDS011;6524;51.368;11.984;2023-03-01T17:11:41;8.07;;;5.97;;
12912;SDS011;6524;51.368;11.984;2023-03-01T17:16:45;8.73;;;6.67;;
12912;SDS011;6524;51.368;11.984;2023-03-01T17:21:46;9.17;;;7.23;;
12912;SDS011;6524;51.368;11.984;2023-03-01T17:26:46;9.23;;;6.87;;
12912;SDS011;6524;51.368;11.984;2023-03-01T17:31:47;8.53;;;6.90;;
12912;SDS011;6524;51.368;11.984;2023-03-01T17:36:48;10.33;;;7.50;;
12912;SDS011;6524;51.368;11.984;2023-03-01T17:41:49;9.97;;;6.57;;
12912;SDS011;6524;51.368;11.984;2023-03-01T17:46:50;9.00;;;6.93;;
12912;SDS011;6524;51.368;11.984;2023-03-01T17:51:51;10.00;;;7.13;;
12912;SDS011;6524;51.368;11.984;2023-03-01T17:56:51;8.40;;;6.57;;
12912;SDS011;6524;51.368;11.984;2023-03-01T18:01:52;9.03;;;6.80;;
12912;SDS011;6524;51.368;11.984;2023-03-01T18:06:53;11.17;;;7.10;;
12912;SDS011;6524;51.368;11.984;2023-03-01T18:11:53;11.57;;;7.80;;
12912;SDS011;6524;51.368;11.984;2023-03-01T18:16:54;9.33;;;7.10;;
12912;SDS011;6524;51.368;11.984;2023-03-01T18:21:57;9.63;;;7.20;;
12912;SDS011;6524;51.368;11.984;2023-03-01T18:26:58;8.43;;;7.10;;
12912;SDS011;6524;51.368;11.984;2023-03-01T18:32:01;10.90;;;7.10;;
12912;SDS011;6524;51.368;11.984;2023-03-01T18:37:01;10.43;;;7.30;;
12912;SDS011;6524;51.368;11.984;2023-03-01T18:42:02;11.07;;;7.80;;
12912;SDS011;6524;51.368;11.984;2023-03-01T18:47:02;12.53;;;7.87;;
12912;SDS011;6524;51.368;11.984;2023-03-01T18:52:03;9.43;;;7.33;;
12912;SDS011;6524;51.368;11.984;2023-03-01T18:57:04;11.13;;;7.23;;
12912;SDS011;6524;51.368;11.984;2023-03-01T19:02:04;11.50;;;7.97;;
12912;SDS011;6524;51.368;11.984;2023-03-01T19:07:05;13.13;;;8.10;;
12912;SDS011;6524;51.368;11.984;2023-03-01T19:12:07;11.23;;;8.63;;
12912;SDS011;6524;51.368;11.984;2023-03-01T19:17:07;9.40;;;7.60;;
12912;SDS011;6524;51.368;11.984;2023-03-01T19:22:08;10.57;;;7.67;;
12912;SDS011;6524;51.368;11.984;2023-03-01T19:27:08;12.00;;;8.30;;
12912;SDS011;6524;51.368;11.984;2023-03-01T19:32:09;9.80;;;7.30;;
12912;SDS011;6524;51.368;11.984;2023-03-01T19:37:09;12.87;;;7.70;;
12912;SDS011;6524;51.368;11.984;2023-03-01T19:42:09;11.00;;;7.13;;
12912;SDS011;6524;51.368;11.984;2023-03-01T19:47:11;11.13;;;7.57;;
12912;SDS011;6524;51.368;11.984;2023-03-01T19:52:11;10.17;;;7.43;;
12912;SDS011;6524;51.368;11.984;2023-03-01T19:57:11;13.90;;;8.47;;
12912;SDS011;6524;51.368;11.984;2023-03-01T20:02:12;15.10;;;9.53;;
12912;SDS011;6524;51.368;11.984;2023-03-01T20:07:12;11.93;;;8.33;;
12912;SDS011;6524;51.368;11.984;2023-03-01T20:12:12;11.30;;;8.90;;
12912;SDS011;6524;51.368;11.984;2023-03-01T20:17:13;13.33;;;8.90;;
12912;SDS011;6524;51.368;11.984;2023-03-01T20:22:14;11.43;;;7.83;;
12912;SDS011;6524;51.368;11.984;2023-03-01T20:27:14;10.57;;;7.80;;
12912;SDS011;6524;51.368;11.984;2023-03-01T20:32:15;9.70;;;7.70;;
12912;SDS011;6524;51.368;11.984;2023-03-01T20:37:15;11.33;;;7.80;;
12912;SDS011;6524;51.368;11.984;2023-03-01T20:42:16;11.53;;;7.10;;
12912;SDS011;6524;51.368;11.984;2023-03-01T20:47:16;10.60;;;7.33;;
12912;SDS011;6524;51.368;11.984;2023-03-01T20:52:19;11.77;;;8.07;;
12912;SDS011;6524;51.368;11.984;2023-03-01T20:57:19;12.10;;;8.60;;
12912;SDS011;6524;51.368;11.984;2023-03-01T21:02:20;13.53;;;9.53;;
12912;SDS011;6524;51.368;11.984;2023-03-01T21:07:20;11.47;;;8.50;;
12912;SDS011;6524;51.368;11.984;2023-03-01T21:12:21;13.27;;;8.40;;
12912;SDS011;6524;51.368;11.984;2023-03-01T21:17:21;15.33;;;8.90;;
12912;SDS011;6524;51.368;11.984;2023-03-01T21:22:21;13.37;;;8.80;;
12912;SDS011;6524;51.368;11.984;2023-03-01T21:27:22;13.90;;;8.83;;
12912;SDS011;6524;51.368;11.984;2023-03-01T21:32:22;24.83;;;16.00;;
12912;SDS011;6524;51.368;11.984;2023-03-01T21:37:23;14.23;;;9.37;;
12912;SDS011;6524;51.368;11.984;2023-03-01T21:42:26;16.47;;;10.70;;
12912;SDS011;6524;51.368;11.984;2023-03-01T21:47:26;14.37;;;8.60;;
12912;SDS011;6524;51.368;11.984;2023-03-01T21:52:27;11.57;;;7.90;;
12912;SDS011;6524;51.368;11.984;2023-03-01T21:57:27;12.03;;;8.80;;
12912;SDS011;6524;51.368;11.984;2023-03-01T22:02:27;11.90;;;8.40;;
12912;SDS011;6524;51.368;11.984;2023-03-01T22:07:28;13.73;;;8.40;;
12912;SDS011;6524;51.368;11.984;2023-03-01T22:12:29;12.43;;;8.73;;
12912;SDS011;6524;51.368;11.984;2023-03-01T22:17:29;12.47;;;8.27;;
12912;SDS011;6524;51.368;11.984;2023-03-01T22:22:30;13.93;;;9.60;;
12912;SDS011;6524;51.368;11.984;2023-03-01T22:27:30;11.93;;;8.30;;
12912;SDS011;6524;51.368;11.984;2023-03-01T22:32:31;13.10;;;8.67;;
12912;SDS011;6524;51.368;11.984;2023-03-01T22:37:31;11.50;;;8.27;;
12912;SDS011;6524;51.368;11.984;2023-03-01T22:42:32;12.70;;;8.70;;
12912;SDS011;6524;51.368;11.984;2023-03-01T22:47:34;12.73;;;8.73;;
12912;SDS011;6524;51.368;11.984;2023-03-01T22:52:36;12.60;;;8.87;;
12912;SDS011;6524;51.368;11.984;2023-03-01T22:57:38;12.03;;;8.33;;
12912;SDS011;6524;51.368;11.984;2023-03-01T23:02:39;12.13;;;8.60;;
12912;SDS011;6524;51.368;11.984;2023-03-01T23:07:40;14.43;;;10.07;;
12912;SDS011;6524;51.368;11.984;2023-03-01T23:12:40;15.27;;;10.03;;
12912;SDS011;6524;51.368;11.984;2023-03-01T23:17:41;16.30;;;9.97;;
12912;SDS011;6524;51.368;11.984;2023-03-01T23:22:41;16.27;;;10.10;;
12912;SDS011;6524;51.368;11.984;2023-03-01T23:27:42;14.80;;;9.80;;
12912;SDS011;6524;51.368;11.984;2023-03-01T23:33:17;15.10;;;10.50;;
12912;SDS011;6524;51.368;11.984;2023-03-01T23:38:26;13.27;;;9.57;;
12912;SDS011;6524;51.368;11.984;2023-03-01T23:43:26;14.77;;;9.50;;
12912;SDS011;6524;51.368;11.984;2023-03-01T23:48:27;15.60;;;9.80;;
12912;SDS011;6524;51.368;11.984;2023-03-01T23:53:27;13.07;;;9.30;;
12912;SDS011;6524;51.368;11.984;2023-03-01T23:58:28;11.73;;;8.67;;
